createdAt,value
2023-01-19T00:00:54.949Z,85.36
2023-01-19T00:03:21.943Z,85.32
2023-01-19T00:05:49.688Z,85.51
2023-01-19T00:08:17.490Z,85.96
2023-01-19T00:10:53.179Z,85.85
2023-01-19T00:13:20.161Z,86.08
2023-01-19T00:15:47.104Z,85.59
2023-01-19T00:18:14.083Z,86.12
2023-01-19T00:20:41.313Z,85.43
2023-01-19T00:23:08.761Z,86.14
2023-01-19T00:25:42.182Z,85.96
2023-01-19T00:28:14.743Z,86.20
2023-01-19T00:30:42.667Z,86.42
2023-01-19T00:33:11.397Z,86.56
2023-01-19T00:35:38.505Z,86.59
2023-01-19T00:38:05.443Z,86.21
2023-01-19T00:40:32.383Z,86.35
2023-01-19T00:43:00.568Z,85.87
2023-01-19T00:45:27.904Z,85.98
2023-01-19T00:47:57.032Z,86.31
2023-01-19T00:50:27.302Z,85.41
2023-01-19T00:52:56.016Z,85.85
2023-01-19T00:55:23.880Z,86.25
2023-01-19T00:57:51.107Z,86.75
2023-01-19T01:00:20.261Z,85.97
2023-01-19T01:02:49.914Z,86.42
2023-01-19T01:05:18.488Z,86.64
2023-01-19T01:07:46.895Z,86.33
2023-01-19T01:10:26.758Z,86.15
2023-01-19T01:12:57.787Z,86.29
2023-01-19T01:15:28.279Z,86.21
2023-01-19T01:17:56.036Z,86.24
2023-01-19T01:20:27.616Z,87.20
2023-01-19T01:22:55.956Z,86.79
2023-01-19T01:25:25.526Z,86.44
2023-01-19T01:27:53.393Z,86.42
2023-01-19T01:30:21.537Z,86.38
2023-01-19T01:32:48.898Z,86.83
2023-01-19T01:35:17.094Z,86.95
2023-01-19T01:37:44.776Z,87.06
2023-01-19T01:40:16.315Z,87.39
2023-01-19T01:42:43.291Z,87.50
2023-01-19T01:45:35.813Z,87.20
2023-01-19T01:48:28.069Z,87.17
2023-01-19T01:51:20.012Z,87.26
2023-01-19T01:53:58.140Z,86.78
2023-01-19T01:56:35.642Z,86.10
2023-01-19T01:59:08.996Z,86.62
2023-01-19T02:01:55.675Z,86.28
2023-01-19T02:04:23.718Z,86.21
2023-01-19T02:07:09.553Z,85.93
2023-01-19T02:09:56.259Z,85.83
2023-01-19T02:12:41.968Z,86.24
2023-01-19T02:15:20.525Z,85.89
2023-01-19T02:17:47.840Z,86.42
2023-01-19T02:20:15.542Z,86.07
2023-01-19T02:22:51.224Z,86.67
2023-01-19T02:25:20.182Z,86.41
2023-01-19T02:27:49.065Z,86.32
2023-01-19T02:30:17.584Z,86.28
2023-01-19T02:32:44.706Z,86.33
2023-01-19T02:35:12.994Z,86.08
2023-01-19T02:37:41.293Z,86.65
2023-01-19T02:40:20.139Z,86.52
2023-01-19T02:42:52.945Z,86.40
2023-01-19T02:45:22.563Z,86.40
2023-01-19T02:47:52.513Z,87.23
2023-01-19T02:51:00.910Z,86.85
2023-01-19T02:53:47.479Z,85.89
2023-01-19T02:56:28.342Z,86.15
2023-01-19T02:59:38.783Z,86.47
2023-01-19T03:02:31.143Z,86.22
2023-01-19T03:05:17.023Z,86.26
2023-01-19T03:08:27.404Z,86.10
2023-01-19T03:11:12.457Z,86.25
2023-01-19T03:14:01.978Z,86.06
2023-01-19T03:16:55.555Z,86.29
2023-01-19T03:19:31.814Z,86.08
2023-01-19T03:22:03.295Z,86.09
2023-01-19T03:24:40.075Z,86.59
2023-01-19T03:27:26.887Z,86.81
2023-01-19T03:30:11.263Z,86.63
2023-01-19T03:32:51.434Z,86.53
2023-01-19T03:35:21.867Z,86.07
2023-01-19T03:37:54.251Z,86.28
2023-01-19T03:40:22.186Z,86.26
2023-01-19T03:42:50.141Z,86.27
2023-01-19T03:45:18.172Z,86.43
2023-01-19T03:47:45.474Z,86.11
2023-01-19T03:50:24.096Z,85.57
2023-01-19T03:53:13.160Z,85.83
2023-01-19T03:55:44.870Z,85.92
2023-01-19T03:58:11.924Z,85.68
2023-01-19T04:00:39.549Z,86.49
2023-01-19T04:03:13.316Z,86.36
2023-01-19T04:05:40.313Z,86.09
2023-01-19T04:08:07.438Z,86.69
2023-01-19T04:10:34.404Z,86.38
2023-01-19T04:13:02.793Z,86.75
2023-01-19T04:15:30.978Z,86.99
2023-01-19T04:17:59.369Z,87.51
2023-01-19T04:20:28.217Z,86.63
2023-01-19T04:22:59.789Z,86.96
2023-01-19T04:25:28.101Z,86.57
2023-01-19T04:27:55.585Z,86.78
2023-01-19T04:30:22.628Z,86.64
2023-01-19T04:32:49.730Z,86.63
2023-01-19T04:35:17.032Z,86.99
2023-01-19T04:37:45.040Z,86.45
2023-01-19T04:40:12.575Z,86.70
2023-01-19T04:42:43.775Z,86.76
2023-01-19T04:45:11.484Z,86.53
2023-01-19T04:47:38.438Z,86.20
2023-01-19T04:50:06.948Z,86.44
2023-01-19T04:52:35.507Z,86.61
2023-01-19T04:55:05.955Z,86.56
2023-01-19T04:57:32.902Z,86.79
2023-01-19T04:59:59.825Z,86.56
2023-01-19T05:02:26.891Z,86.21
2023-01-19T05:04:53.875Z,86.14
2023-01-19T05:07:20.801Z,86.14
2023-01-19T05:09:50.544Z,86.22
2023-01-19T05:12:17.727Z,86.21
2023-01-19T05:14:44.753Z,86.01
2023-01-19T05:17:13.139Z,85.91
2023-01-19T05:19:40.055Z,86.07
2023-01-19T05:22:07.184Z,86.31
2023-01-19T05:24:34.082Z,85.96
2023-01-19T05:27:01.120Z,86.19
2023-01-19T05:29:28.030Z,85.91
2023-01-19T05:31:54.970Z,85.92
2023-01-19T05:34:21.901Z,86.44
2023-01-19T05:36:48.815Z,85.86
2023-01-19T05:39:15.916Z,86.75
2023-01-19T05:41:44.628Z,86.25
2023-01-19T05:44:12.859Z,86.50
2023-01-19T05:46:40.490Z,86.23
2023-01-19T05:49:07.593Z,85.99
2023-01-19T05:51:37.924Z,85.91
2023-01-19T05:54:06.103Z,86.45
2023-01-19T05:56:33.502Z,86.64
2023-01-19T05:59:01.594Z,87.62
2023-01-19T06:01:28.786Z,87.52
2023-01-19T06:03:55.755Z,87.39
2023-01-19T06:06:23.501Z,87.55
2023-01-19T06:08:50.434Z,87.65
2023-01-19T06:11:17.434Z,87.08
2023-01-19T06:13:44.574Z,86.57
2023-01-19T06:16:11.783Z,86.36
2023-01-19T06:18:38.967Z,86.47
2023-01-19T06:21:12.172Z,86.63
2023-01-19T06:23:39.151Z,86.46
2023-01-19T06:26:06.120Z,87.04
2023-01-19T06:28:33.184Z,86.75
2023-01-19T06:31:00.290Z,86.55
2023-01-19T06:33:27.922Z,86.35
2023-01-19T06:35:55.506Z,86.49
2023-01-19T06:38:22.859Z,86.53
2023-01-19T06:40:56.738Z,86.46
2023-01-19T06:43:23.918Z,86.70
2023-01-19T06:45:51.125Z,86.62
2023-01-19T06:48:19.072Z,86.72
2023-01-19T06:50:47.531Z,86.79
2023-01-19T06:53:16.599Z,86.48
2023-01-19T06:55:44.148Z,86.72
2023-01-19T06:58:12.354Z,86.43
2023-01-19T07:00:39.317Z,86.58
2023-01-19T07:03:16.492Z,86.63
2023-01-19T07:05:43.395Z,86.62
2023-01-19T07:08:10.407Z,86.25
2023-01-19T07:11:26.759Z,86.42
2023-01-19T07:13:24.254Z,87.02
2023-01-19T07:15:51.197Z,86.56
2023-01-19T07:18:18.114Z,86.62
2023-01-19T07:20:46.731Z,86.53
2023-01-19T07:23:13.659Z,86.74
2023-01-19T07:25:40.581Z,86.77
2023-01-19T07:28:07.533Z,86.91
2023-01-19T07:30:34.508Z,87.07
2023-01-19T07:33:02.679Z,86.50
2023-01-19T07:35:30.025Z,86.49
2023-01-19T07:37:56.945Z,86.50
2023-01-19T07:40:24.088Z,86.59
2023-01-19T07:42:52.006Z,86.35
2023-01-19T07:45:20.743Z,86.31
2023-01-19T07:47:49.082Z,86.28
2023-01-19T07:50:18.022Z,86.20
2023-01-19T07:52:45.514Z,86.30
2023-01-19T07:55:12.472Z,86.71
2023-01-19T07:57:39.375Z,86.51
2023-01-19T08:00:08.727Z,86.70
2023-01-19T08:02:41.913Z,86.62
2023-01-19T08:05:09.271Z,86.64
2023-01-19T08:07:36.248Z,86.57
2023-01-19T08:10:03.221Z,86.74
2023-01-19T08:12:30.147Z,86.39
2023-01-19T08:14:57.056Z,86.86
2023-01-19T08:17:23.961Z,86.76
2023-01-19T08:19:50.906Z,86.85
2023-01-19T08:22:17.858Z,87.04
2023-01-19T08:24:44.798Z,87.32
2023-01-19T08:27:14.501Z,87.09
2023-01-19T08:29:41.437Z,86.87
2023-01-19T08:32:08.507Z,87.00
2023-01-19T08:34:35.697Z,86.87
2023-01-19T08:37:02.662Z,86.88
2023-01-19T08:39:29.574Z,86.91
2023-01-19T08:41:56.734Z,86.86
2023-01-19T08:44:23.645Z,86.90
2023-01-19T08:46:50.681Z,86.98
2023-01-19T08:49:20.603Z,86.81
2023-01-19T08:51:49.021Z,86.98
2023-01-19T08:54:18.585Z,86.93
2023-01-19T08:56:45.687Z,87.11
2023-01-19T08:59:14.119Z,87.19
2023-01-19T09:01:41.334Z,87.07
2023-01-19T09:04:08.744Z,87.04
2023-01-19T09:06:35.829Z,87.06
2023-01-19T09:09:03.487Z,87.18
2023-01-19T09:11:30.768Z,87.12
2023-01-19T09:13:57.699Z,87.14
2023-01-19T09:16:26.983Z,87.08
2023-01-19T09:18:54.117Z,87.21
2023-01-19T09:21:21.116Z,87.19
2023-01-19T09:23:49.099Z,87.23
2023-01-19T09:26:16.619Z,87.27
2023-01-19T09:28:43.614Z,87.65
2023-01-19T09:31:10.625Z,87.47
2023-01-19T09:33:37.717Z,87.40
2023-01-19T09:36:04.930Z,87.26
2023-01-19T09:38:32.784Z,87.36
2023-01-19T09:41:01.086Z,87.48
2023-01-19T09:43:45.523Z,87.33
2023-01-19T09:46:38.645Z,87.41
2023-01-19T09:49:23.219Z,87.58
2023-01-19T09:51:51.274Z,87.34
2023-01-19T09:54:46.675Z,87.47
2023-01-19T09:57:14.670Z,87.42
2023-01-19T09:59:43.849Z,87.43
2023-01-19T10:02:37.073Z,87.44
2023-01-19T10:05:29.098Z,87.61
2023-01-19T10:08:32.684Z,87.58
2023-01-19T10:10:59.806Z,87.49
2023-01-19T10:13:54.050Z,87.30
2023-01-19T10:16:53.025Z,87.09
2023-01-19T10:19:27.646Z,87.45
2023-01-19T10:21:58.589Z,87.57
2023-01-19T10:24:43.901Z,87.71
2023-01-19T10:27:17.987Z,87.58
2023-01-19T10:29:46.228Z,87.61
2023-01-19T10:32:25.648Z,87.77
2023-01-19T10:34:54.066Z,87.71
2023-01-19T10:37:34.152Z,87.46
2023-01-19T10:40:10.268Z,87.59
2023-01-19T10:42:40.126Z,87.79
2023-01-19T10:45:23.577Z,87.95
2023-01-19T10:47:52.942Z,87.81
2023-01-19T10:50:28.495Z,88.06
2023-01-19T10:53:02.062Z,87.99
2023-01-19T10:55:38.155Z,88.06
2023-01-19T10:58:07.430Z,87.88
2023-01-19T11:00:39.405Z,88.11
2023-01-19T11:03:26.396Z,88.23
2023-01-19T11:05:53.537Z,87.98
2023-01-19T11:08:31.037Z,88.20
2023-01-19T11:11:08.578Z,88.13
2023-01-19T11:13:36.184Z,88.13
2023-01-19T11:16:39.882Z,88.19
2023-01-19T11:19:20.104Z,88.02
2023-01-19T11:21:47.347Z,88.26
2023-01-19T11:24:16.302Z,88.45
2023-01-19T11:26:47.965Z,88.45
2023-01-19T11:29:23.315Z,88.29
2023-01-19T11:31:52.272Z,88.39
2023-01-19T11:34:22.178Z,88.10
2023-01-19T11:37:05.446Z,88.20
2023-01-19T11:39:54.834Z,88.24
2023-01-19T11:42:22.309Z,88.16
2023-01-19T11:44:52.231Z,88.15
2023-01-19T11:47:41.715Z,88.12
2023-01-19T11:50:42.380Z,88.29
2023-01-19T11:53:25.349Z,88.03
2023-01-19T11:56:02.823Z,88.06
2023-01-19T11:58:32.722Z,87.83
2023-01-19T12:01:21.152Z,88.06
2023-01-19T12:04:15.149Z,88.05
2023-01-19T12:06:47.792Z,87.98
2023-01-19T12:09:27.477Z,88.14
2023-01-19T12:12:04.024Z,87.90
2023-01-19T12:14:54.593Z,87.95
2023-01-19T12:17:33.616Z,87.99
2023-01-19T12:20:31.307Z,88.03
2023-01-19T12:23:19.262Z,88.16
2023-01-19T12:26:16.396Z,88.12
2023-01-19T12:28:48.203Z,87.81
2023-01-19T12:31:21.670Z,87.76
2023-01-19T12:33:49.501Z,87.92
2023-01-19T12:36:33.103Z,87.85
2023-01-19T12:39:04.696Z,87.80
2023-01-19T12:41:41.419Z,87.90
2023-01-19T12:44:11.545Z,87.61
2023-01-19T12:46:49.398Z,87.95
2023-01-19T12:49:44.497Z,87.66
2023-01-19T12:52:20.227Z,87.79
2023-01-19T12:55:06.479Z,87.93
2023-01-19T12:57:40.854Z,87.91
2023-01-19T13:00:10.923Z,87.79
2023-01-19T13:02:47.297Z,87.92
2023-01-19T13:05:17.520Z,88.14
2023-01-19T13:08:02.616Z,88.38
2023-01-19T13:11:00.428Z,88.79
2023-01-19T13:13:45.013Z,88.56
2023-01-19T13:16:27.355Z,88.53
2023-01-19T13:19:00.436Z,88.49
2023-01-19T13:21:39.872Z,88.41
2023-01-19T13:24:24.200Z,88.29
2023-01-19T13:26:53.997Z,88.23
2023-01-19T13:29:34.515Z,87.80
2023-01-19T13:32:17.450Z,88.10
2023-01-19T13:34:52.815Z,87.76
2023-01-19T13:37:28.564Z,87.52
2023-01-19T13:39:56.541Z,87.56
2023-01-19T13:42:41.452Z,87.79
2023-01-19T13:45:34.117Z,87.53
2023-01-19T13:48:06.480Z,87.46
2023-01-19T13:50:39.273Z,87.12
2023-01-19T13:53:21.116Z,87.11
2023-01-19T13:55:48.391Z,87.13
2023-01-19T13:58:23.834Z,87.06
2023-01-19T14:00:51.061Z,86.80
2023-01-19T14:03:23.969Z,87.22
2023-01-19T14:05:53.822Z,87.02
2023-01-19T14:08:22.415Z,87.24
2023-01-19T14:10:56.157Z,87.04
2023-01-19T14:13:26.527Z,87.02
2023-01-19T14:15:57.947Z,86.55
2023-01-19T14:18:33.746Z,86.32
2023-01-19T14:21:13.355Z,86.54
2023-01-19T14:23:46.894Z,86.74
2023-01-19T14:26:52.832Z,86.90
2023-01-19T14:29:33.087Z,86.91
2023-01-19T14:32:15.095Z,86.91
2023-01-19T14:34:50.254Z,87.09
2023-01-19T14:37:35.679Z,86.93
2023-01-19T14:40:05.572Z,86.35
2023-01-19T14:42:44.212Z,86.59
2023-01-19T14:45:21.765Z,86.38
2023-01-19T14:48:04.754Z,86.04
2023-01-19T14:50:42.807Z,86.35
2023-01-19T14:53:28.380Z,86.01
2023-01-19T14:56:02.837Z,86.05
2023-01-19T14:58:33.579Z,86.28
2023-01-19T15:01:00.586Z,86.07
2023-01-19T15:03:44.384Z,86.14
2023-01-19T15:06:19.245Z,85.97
2023-01-19T15:08:47.288Z,86.28
2023-01-19T15:11:24.675Z,86.03
2023-01-19T15:13:51.928Z,86.13
2023-01-19T15:16:19.995Z,85.97
2023-01-19T15:18:47.087Z,86.07
2023-01-19T15:21:19.423Z,85.95
2023-01-19T15:23:47.499Z,85.90
2023-01-19T15:26:18.940Z,86.00
2023-01-19T15:28:48.668Z,86.17
2023-01-19T15:31:17.968Z,86.04
2023-01-19T15:33:45.418Z,86.04
2023-01-19T15:36:22.045Z,85.97
2023-01-19T15:38:50.912Z,85.88
2023-01-19T15:41:31.765Z,85.93
2023-01-19T15:43:59.219Z,85.92
2023-01-19T15:46:26.600Z,85.89
2023-01-19T15:48:54.142Z,85.48
2023-01-19T15:51:28.015Z,85.52
2023-01-19T15:53:55.609Z,85.81
2023-01-19T15:56:31.227Z,85.89
2023-01-19T15:58:59.043Z,85.93
2023-01-19T16:01:32.551Z,85.79
2023-01-19T16:04:02.435Z,85.79
2023-01-19T16:06:30.752Z,85.73
2023-01-19T16:09:01.271Z,85.76
2023-01-19T16:11:31.537Z,85.96
2023-01-19T16:13:58.594Z,86.02
2023-01-19T16:16:26.645Z,85.87
2023-01-19T16:18:53.689Z,85.85
2023-01-19T16:21:20.748Z,85.74
2023-01-19T16:23:47.646Z,85.67
2023-01-19T16:26:36.496Z,85.72
2023-01-19T16:29:08.644Z,85.81
2023-01-19T16:31:37.772Z,85.55
2023-01-19T16:34:04.736Z,85.73
2023-01-19T16:36:35.305Z,85.79
2023-01-19T16:39:07.902Z,86.07
2023-01-19T16:41:35.538Z,85.81
2023-01-19T16:44:03.688Z,85.80
2023-01-19T16:46:36.873Z,85.55
2023-01-19T16:49:13.829Z,85.85
2023-01-19T16:51:40.932Z,85.88
2023-01-19T16:54:11.141Z,85.84
2023-01-19T16:56:38.243Z,85.54
2023-01-19T16:59:05.153Z,85.97
2023-01-19T17:01:32.314Z,85.91
2023-01-19T17:03:59.377Z,85.81
2023-01-19T17:06:26.502Z,85.45
2023-01-19T17:08:53.621Z,85.78
2023-01-19T17:11:24.466Z,85.87
2023-01-19T17:14:06.162Z,85.81
2023-01-19T17:16:35.131Z,85.71
2023-01-19T17:19:05.202Z,86.12
2023-01-19T17:21:32.430Z,86.67
2023-01-19T17:24:00.031Z,86.69
2023-01-19T17:26:29.435Z,86.14
2023-01-19T17:29:04.309Z,86.17
2023-01-19T17:31:32.073Z,86.68
2023-01-19T17:34:00.241Z,86.97
2023-01-19T17:36:29.648Z,86.28
2023-01-19T17:38:59.365Z,86.02
2023-01-19T17:41:29.792Z,86.25
2023-01-19T17:43:57.898Z,86.05
2023-01-19T17:46:28.302Z,85.96
2023-01-19T17:49:03.168Z,85.93
2023-01-19T17:51:31.738Z,86.01
2023-01-19T17:53:59.049Z,85.89
2023-01-19T17:56:30.236Z,85.81
2023-01-19T17:58:59.003Z,85.91
2023-01-19T18:01:33.722Z,85.77
2023-01-19T18:04:02.481Z,86.00
2023-01-19T18:06:29.541Z,85.98
2023-01-19T18:08:58.217Z,85.69
2023-01-19T18:11:26.325Z,85.71
2023-01-19T18:13:53.546Z,85.90
2023-01-19T18:16:27.488Z,85.88
2023-01-19T18:18:56.328Z,85.73
2023-01-19T18:21:27.237Z,85.94
2023-01-19T18:24:05.684Z,85.64
2023-01-19T18:26:34.584Z,85.80
2023-01-19T18:29:01.607Z,85.64
2023-01-19T18:31:28.919Z,85.86
2023-01-19T18:33:55.933Z,85.84
2023-01-19T18:36:23.026Z,85.64
2023-01-19T18:38:50.163Z,85.71
2023-01-19T18:41:20.843Z,85.82
2023-01-19T18:43:48.633Z,85.91
2023-01-19T18:46:16.762Z,85.75
2023-01-19T18:48:43.892Z,85.75
2023-01-19T18:51:13.868Z,85.80
2023-01-19T18:53:41.045Z,86.01
2023-01-19T18:56:10.937Z,85.93
2023-01-19T18:58:40.238Z,85.89
2023-01-19T19:01:31.509Z,85.82
2023-01-19T19:03:59.818Z,86.14
2023-01-19T19:06:27.779Z,86.02
2023-01-19T19:08:57.572Z,86.41
2023-01-19T19:11:25.807Z,86.73
2023-01-19T19:14:00.937Z,86.95
2023-01-19T19:16:28.788Z,86.83
2023-01-19T19:18:55.949Z,86.68
2023-01-19T19:21:25.464Z,86.32
2023-01-19T19:23:55.161Z,86.55
2023-01-19T19:26:24.223Z,86.42
2023-01-19T19:28:51.199Z,86.61
2023-01-19T19:31:21.663Z,86.58
2023-01-19T19:33:50.855Z,86.90
2023-01-19T19:36:19.738Z,86.41
2023-01-19T19:38:47.750Z,86.30
2023-01-19T19:41:22.142Z,86.17
2023-01-19T19:43:49.907Z,86.09
2023-01-19T19:46:20.058Z,86.20
2023-01-19T19:48:49.828Z,86.12
2023-01-19T19:51:27.010Z,86.15
2023-01-19T19:54:00.151Z,86.30
2023-01-19T19:56:30.543Z,86.06
2023-01-19T19:58:59.165Z,86.28
2023-01-19T20:01:32.539Z,86.22
2023-01-19T20:04:09.267Z,86.38
2023-01-19T20:06:39.795Z,86.30
2023-01-19T20:09:10.323Z,86.25
2023-01-19T20:11:37.501Z,85.94
2023-01-19T20:14:10.311Z,85.96
2023-01-19T20:16:38.200Z,86.17
2023-01-19T20:19:05.623Z,86.04
2023-01-19T20:21:36.266Z,86.22
2023-01-19T20:24:07.705Z,86.08
2023-01-19T20:26:39.831Z,86.16
2023-01-19T20:29:07.203Z,86.04
2023-01-19T20:31:43.402Z,85.81
2023-01-19T20:34:13.659Z,86.10
2023-01-19T20:36:57.186Z,86.04
2023-01-19T20:39:25.087Z,86.05
2023-01-19T20:41:52.699Z,86.00
2023-01-19T20:44:24.059Z,85.91
2023-01-19T20:46:52.887Z,86.17
2023-01-19T20:49:20.557Z,86.11
2023-01-19T20:51:48.482Z,86.19
2023-01-19T20:54:19.884Z,86.08
2023-01-19T20:56:46.919Z,86.26
2023-01-19T20:59:14.531Z,86.18
2023-01-19T21:01:42.447Z,86.21
2023-01-19T21:04:09.920Z,86.06
2023-01-19T21:06:37.624Z,86.17
2023-01-19T21:09:04.994Z,86.02
2023-01-19T21:11:31.993Z,86.21
2023-01-19T21:14:00.013Z,85.97
2023-01-19T21:16:31.660Z,86.04
2023-01-19T21:18:59.139Z,85.71
2023-01-19T21:21:31.384Z,86.17
2023-01-19T21:24:01.111Z,86.13
2023-01-19T21:26:33.352Z,85.95
2023-01-19T21:29:01.906Z,86.26
2023-01-19T21:31:29.160Z,85.89
2023-01-19T21:33:59.059Z,86.01
2023-01-19T21:36:26.372Z,86.15
2023-01-19T21:38:55.472Z,86.05
2023-01-19T21:41:22.851Z,86.25
2023-01-19T21:43:49.802Z,86.14
2023-01-19T21:46:29.347Z,86.00
2023-01-19T21:48:59.328Z,85.84
2023-01-19T21:51:27.186Z,86.06
2023-01-19T21:53:59.522Z,86.02
2023-01-19T21:56:28.256Z,86.11
2023-01-19T21:58:56.898Z,86.43
2023-01-19T22:01:24.164Z,86.30
2023-01-19T22:03:56.437Z,86.58
2023-01-19T22:06:24.939Z,86.50
2023-01-19T22:08:52.507Z,86.53
2023-01-19T22:11:21.291Z,86.59
2023-01-19T22:13:48.521Z,86.46
2023-01-19T22:16:19.385Z,86.51
2023-01-19T22:18:56.216Z,86.81
2023-01-19T22:21:34.106Z,86.53
2023-01-19T22:24:02.822Z,87.04
2023-01-19T22:26:31.889Z,87.23
2023-01-19T22:29:01.807Z,86.91
2023-01-19T22:31:30.776Z,86.43
2023-01-19T22:33:58.520Z,86.59
2023-01-19T22:36:38.103Z,86.24
2023-01-19T22:39:08.829Z,86.27
2023-01-19T22:41:42.808Z,86.42
2023-01-19T22:44:16.519Z,86.33
2023-01-19T22:46:43.877Z,86.65
2023-01-19T22:49:14.895Z,86.91
2023-01-19T22:51:42.360Z,87.05
2023-01-19T22:54:10.590Z,87.48
2023-01-19T22:56:39.495Z,86.82
2023-01-19T22:59:07.560Z,87.02
2023-01-19T23:01:43.444Z,86.92
2023-01-19T23:04:15.849Z,86.52
2023-01-19T23:06:43.023Z,86.65
2023-01-19T23:09:14.910Z,86.50
2023-01-19T23:11:45.670Z,86.68
2023-01-19T23:14:16.714Z,86.48
2023-01-19T23:16:44.033Z,86.51
2023-01-19T23:19:12.723Z,86.30
2023-01-19T23:21:40.627Z,86.20
2023-01-19T23:24:08.112Z,86.51
2023-01-19T23:26:38.299Z,86.75
2023-01-19T23:29:14.559Z,86.52
2023-01-19T23:31:48.787Z,86.47
2023-01-19T23:34:16.287Z,86.59
2023-01-19T23:36:43.767Z,86.48
2023-01-19T23:39:14.992Z,86.21
2023-01-19T23:41:41.921Z,86.35
2023-01-19T23:44:08.827Z,86.21
2023-01-19T23:46:35.871Z,86.71
2023-01-19T23:49:02.888Z,86.60
2023-01-19T23:51:31.633Z,86.51
2023-01-19T23:53:59.914Z,86.52
2023-01-19T23:56:31.652Z,86.24
2023-01-19T23:59:06.851Z,86.28
